createdAt,value
2023-04-11T00:02:21.885Z,8.25
2023-04-11T00:05:07.877Z,8.28
2023-04-11T00:07:53.119Z,8.27
2023-04-11T00:10:37.935Z,8.26
2023-04-11T00:13:22.914Z,8.26
2023-04-11T00:16:09.194Z,8.24
2023-04-11T00:18:54.925Z,8.26
2023-04-11T00:21:40.269Z,8.25
2023-04-11T00:24:25.487Z,8.30
2023-04-11T00:27:10.396Z,8.31
2023-04-11T00:29:55.700Z,8.25
2023-04-11T00:32:40.680Z,8.28
2023-04-11T00:35:26.225Z,8.30
2023-04-11T00:38:11.304Z,8.27
2023-04-11T00:40:56.116Z,8.35
2023-04-11T00:43:41.250Z,8.38
2023-04-11T00:46:26.653Z,8.39
2023-04-11T00:49:12.007Z,8.43
2023-04-11T00:51:57.693Z,8.46
2023-04-11T00:54:42.953Z,8.41
2023-04-11T00:57:27.953Z,8.40
2023-04-11T01:00:14.142Z,8.36
2023-04-11T01:02:59.523Z,8.38
2023-04-11T01:05:46.667Z,8.44
2023-04-11T01:08:32.978Z,8.35
2023-04-11T01:11:19.044Z,8.28
2023-04-11T01:14:05.163Z,8.25
2023-04-11T01:16:50.622Z,8.32
2023-04-11T01:19:36.105Z,8.26
2023-04-11T01:22:22.641Z,8.28
2023-04-11T01:25:08.717Z,8.31
2023-04-11T01:27:53.892Z,8.31
2023-04-11T01:30:39.198Z,8.36
2023-04-11T01:33:24.969Z,8.34
2023-04-11T01:36:10.475Z,8.36
2023-04-11T01:38:55.940Z,8.39
2023-04-11T01:41:41.896Z,8.35
2023-04-11T01:44:28.126Z,8.30
2023-04-11T01:47:13.379Z,8.30
2023-04-11T01:49:58.564Z,8.29
2023-04-11T01:52:43.523Z,8.30
2023-04-11T01:55:28.418Z,8.31
2023-04-11T01:58:13.249Z,8.30
2023-04-11T02:00:58.110Z,8.25
2023-04-11T02:03:43.193Z,8.29
2023-04-11T02:06:28.316Z,8.41
2023-04-11T02:09:13.615Z,8.42
2023-04-11T02:11:58.421Z,8.48
2023-04-11T02:14:45.711Z,8.44
2023-04-11T02:17:30.573Z,8.40
2023-04-11T02:20:15.807Z,8.37
2023-04-11T02:23:01.211Z,8.37
2023-04-11T02:25:46.152Z,8.38
2023-04-11T02:28:31.634Z,8.44
2023-04-11T02:31:16.562Z,8.40
2023-04-11T02:34:01.954Z,8.38
2023-04-11T02:36:47.307Z,8.45
2023-04-11T02:39:32.132Z,8.59
2023-04-11T02:42:17.356Z,8.69
2023-04-11T02:45:02.694Z,8.70
2023-04-11T02:47:48.281Z,8.75
2023-04-11T02:50:33.768Z,8.81
2023-04-11T02:53:19.095Z,8.92
2023-04-11T02:56:04.689Z,8.73
2023-04-11T02:58:49.912Z,8.52
2023-04-11T03:01:35.527Z,8.30
2023-04-11T03:04:20.920Z,8.30
2023-04-11T03:07:06.278Z,8.16
2023-04-11T03:09:51.146Z,7.95
2023-04-11T03:12:36.033Z,8.00
2023-04-11T03:15:21.504Z,7.96
2023-04-11T03:18:06.344Z,7.76
2023-04-11T03:20:51.818Z,7.79
2023-04-11T03:23:38.492Z,7.78
2023-04-11T03:26:25.141Z,7.76
2023-04-11T03:29:10.554Z,7.83
2023-04-11T03:31:55.417Z,8.00
2023-04-11T03:34:40.298Z,8.11
2023-04-11T03:37:25.672Z,8.07
2023-04-11T03:40:11.206Z,8.06
2023-04-11T03:42:56.463Z,8.00
2023-04-11T03:45:41.529Z,7.99
2023-04-11T03:48:26.481Z,8.02
2023-04-11T03:51:11.973Z,7.97
2023-04-11T03:53:57.555Z,7.91
2023-04-11T03:56:42.544Z,7.88
2023-04-11T03:59:27.989Z,7.86
2023-04-11T04:02:15.196Z,7.87
2023-04-11T04:05:00.694Z,7.82
2023-04-11T04:07:46.039Z,7.87
2023-04-11T04:10:31.371Z,7.88
2023-04-11T04:13:16.229Z,7.88
2023-04-11T04:16:03.525Z,7.91
2023-04-11T04:18:48.850Z,7.98
2023-04-11T04:21:34.093Z,7.99
2023-04-11T04:24:19.232Z,7.95
2023-04-11T04:27:04.662Z,7.96
2023-04-11T04:29:53.930Z,8.00
2023-04-11T04:32:48.893Z,8.00
2023-04-11T04:35:34.834Z,7.95
2023-04-11T04:38:20.133Z,7.84
2023-04-11T04:41:05.420Z,7.67
2023-04-11T04:43:50.798Z,7.59
2023-04-11T04:46:35.782Z,7.58
2023-04-11T04:49:20.695Z,7.59
2023-04-11T04:52:05.942Z,7.57
2023-04-11T04:54:51.432Z,7.50
2023-04-11T04:57:36.176Z,7.50
2023-04-11T05:00:23.113Z,7.53
2023-04-11T05:03:08.666Z,7.57
2023-04-11T05:05:54.531Z,7.70
2023-04-11T05:08:39.982Z,7.68
2023-04-11T05:11:28.907Z,7.64
2023-04-11T05:14:13.956Z,7.66
2023-04-11T05:16:59.351Z,7.66
2023-04-11T05:19:44.747Z,7.67
2023-04-11T05:22:29.851Z,7.77
2023-04-11T05:25:14.809Z,7.79
2023-04-11T05:28:00.021Z,7.90
2023-04-11T05:30:45.402Z,8.01
2023-04-11T05:33:30.890Z,7.81
2023-04-11T05:36:16.253Z,7.59
2023-04-11T05:39:01.312Z,7.26
2023-04-11T05:41:46.264Z,7.17
2023-04-11T05:44:31.637Z,7.18
2023-04-11T05:47:16.647Z,7.06
2023-04-11T05:50:02.159Z,7.11
2023-04-11T05:52:47.382Z,7.01
2023-04-11T05:55:33.210Z,7.02
2023-04-11T05:58:18.487Z,6.98
2023-04-11T06:01:04.630Z,6.99
2023-04-11T06:03:49.934Z,6.95
2023-04-11T06:06:35.265Z,6.97
2023-04-11T06:09:21.222Z,6.90
2023-04-11T06:12:06.582Z,6.91
2023-04-11T06:14:51.946Z,6.70
2023-04-11T06:17:37.468Z,6.70
2023-04-11T06:20:23.486Z,6.53
2023-04-11T06:23:08.995Z,6.51
2023-04-11T06:25:54.418Z,6.49
2023-04-11T06:28:39.747Z,6.52
2023-04-11T06:31:25.326Z,6.49
2023-04-11T06:34:10.781Z,6.49
2023-04-11T06:36:56.185Z,6.40
2023-04-11T06:39:41.512Z,6.38
2023-04-11T06:42:26.874Z,6.45
2023-04-11T06:45:12.736Z,6.50
2023-04-11T06:47:57.767Z,6.44
2023-04-11T06:50:43.101Z,6.53
2023-04-11T06:53:28.470Z,6.53
2023-04-11T06:56:14.043Z,6.51
2023-04-11T06:58:59.358Z,6.58
2023-04-11T07:01:45.010Z,6.29
2023-04-11T07:04:30.184Z,6.42
2023-04-11T07:07:15.518Z,6.68
2023-04-11T07:10:00.979Z,6.78
2023-04-11T07:12:46.365Z,6.83
2023-04-11T07:15:31.293Z,7.07
2023-04-11T07:18:16.813Z,6.97
2023-04-11T07:21:02.219Z,7.09
2023-04-11T07:23:48.385Z,7.34
2023-04-11T07:26:33.174Z,7.42
2023-04-11T07:29:19.033Z,7.36
2023-04-11T07:32:04.136Z,7.06
2023-04-11T07:34:49.703Z,7.15
2023-04-11T07:37:35.099Z,7.21
2023-04-11T07:40:20.437Z,7.24
2023-04-11T07:43:05.795Z,7.18
2023-04-11T07:45:50.749Z,7.34
2023-04-11T07:48:36.216Z,7.24
2023-04-11T07:51:21.594Z,7.17
2023-04-11T07:54:06.981Z,7.15
2023-04-11T07:56:52.362Z,7.44
2023-04-11T07:59:37.692Z,7.64
2023-04-11T08:02:23.003Z,7.61
2023-04-11T08:05:08.645Z,7.66
2023-04-11T08:07:53.876Z,8.39
2023-04-11T08:10:39.321Z,9.23
2023-04-11T08:13:24.796Z,9.52
2023-04-11T08:16:11.876Z,9.28
2023-04-11T08:18:57.065Z,9.32
2023-04-11T08:21:43.430Z,8.75
2023-04-11T08:24:28.492Z,8.28
2023-04-11T08:27:13.793Z,8.37
2023-04-11T08:29:58.842Z,8.87
2023-04-11T08:32:44.230Z,8.87
2023-04-11T08:35:29.747Z,9.28
2023-04-11T08:38:15.227Z,9.61
2023-04-11T08:41:00.643Z,10.39
2023-04-11T08:43:45.584Z,10.48
2023-04-11T08:46:32.694Z,10.88
2023-04-11T08:49:18.202Z,10.95
2023-04-11T08:52:03.563Z,10.19
2023-04-11T08:54:51.479Z,9.59
2023-04-11T08:57:36.614Z,9.60
2023-04-11T09:00:24.129Z,10.16
2023-04-11T09:03:11.605Z,10.65
2023-04-11T09:05:57.028Z,10.20
2023-04-11T09:08:42.407Z,10.64
2023-04-11T09:11:27.524Z,10.51
2023-04-11T09:14:12.733Z,10.70
2023-04-11T09:16:59.122Z,11.50
2023-04-11T09:19:45.139Z,12.46
2023-04-11T09:22:35.624Z,12.45
2023-04-11T09:25:22.240Z,11.52
2023-04-11T09:28:10.104Z,11.21
2023-04-11T09:30:56.162Z,11.13
2023-04-11T09:33:53.126Z,11.02
2023-04-11T09:36:39.215Z,10.80
2023-04-11T09:39:24.807Z,10.79
2023-04-11T09:42:25.210Z,10.52
2023-04-11T09:45:17.485Z,9.86
2023-04-11T09:48:02.485Z,9.86
2023-04-11T09:50:49.091Z,10.08
2023-04-11T09:53:35.281Z,10.04
2023-04-11T09:56:20.689Z,10.10
2023-04-11T09:59:06.459Z,9.82
2023-04-11T10:01:53.076Z,9.70
2023-04-11T10:04:38.310Z,9.64
2023-04-11T10:07:23.701Z,10.02
2023-04-11T10:10:08.959Z,10.11
2023-04-11T10:12:54.255Z,10.12
2023-04-11T10:16:05.921Z,10.26
2023-04-11T10:18:54.035Z,9.92
2023-04-11T10:21:39.295Z,10.15
2023-04-11T10:24:24.664Z,9.23
2023-04-11T10:27:09.760Z,9.74
2023-04-11T10:29:54.654Z,9.94
2023-04-11T10:32:40.759Z,10.27
2023-04-11T10:35:25.747Z,10.48
2023-04-11T10:38:42.228Z,11.15
2023-04-11T10:41:28.615Z,10.43
2023-04-11T10:44:18.427Z,10.57
2023-04-11T10:47:16.757Z,10.09
2023-04-11T10:50:03.142Z,10.54
2023-04-11T10:52:48.617Z,10.89
2023-04-11T10:55:50.749Z,10.26
2023-04-11T10:58:40.215Z,10.20
2023-04-11T11:01:31.889Z,10.23
2023-04-11T11:04:39.148Z,10.79
2023-04-11T11:07:24.721Z,10.62
2023-04-11T11:10:10.196Z,10.95
2023-04-11T11:12:55.186Z,10.99
2023-04-11T11:15:47.536Z,11.13
2023-04-11T11:18:32.769Z,11.44
2023-04-11T11:21:27.401Z,10.51
2023-04-11T11:24:13.520Z,9.98
2023-04-11T11:26:58.994Z,9.82
2023-04-11T11:29:44.245Z,9.68
2023-04-11T11:32:29.389Z,10.10
2023-04-11T11:35:14.653Z,10.64
2023-04-11T11:38:00.202Z,11.29
2023-04-11T11:40:47.570Z,11.35
2023-04-11T11:43:35.953Z,11.22
2023-04-11T11:46:21.079Z,11.35
2023-04-11T11:49:08.296Z,10.89
2023-04-11T11:51:53.548Z,11.56
2023-04-11T11:54:46.141Z,10.89
2023-04-11T11:57:32.753Z,10.84
2023-04-11T12:00:25.552Z,12.04
2023-04-11T12:03:10.495Z,12.69
2023-04-11T12:05:55.867Z,13.15
2023-04-11T12:08:41.198Z,12.57
2023-04-11T12:11:26.128Z,13.61
2023-04-11T12:14:21.519Z,13.61
2023-04-11T12:17:08.789Z,12.53
2023-04-11T12:19:55.373Z,13.23
2023-04-11T12:22:40.469Z,12.84
2023-04-11T12:25:25.598Z,13.23
2023-04-11T12:28:10.879Z,14.31
2023-04-11T12:30:56.013Z,13.19
2023-04-11T12:33:41.487Z,14.00
2023-04-11T12:36:26.959Z,12.98
2023-04-11T12:39:12.458Z,12.31
2023-04-11T12:41:57.745Z,13.80
2023-04-11T12:44:44.232Z,15.33
2023-04-11T12:47:29.608Z,14.90
2023-04-11T12:50:14.923Z,13.82
2023-04-11T12:53:00.421Z,13.17
2023-04-11T12:55:46.180Z,14.62
2023-04-11T12:58:31.756Z,13.77
2023-04-11T13:01:17.129Z,13.44
2023-04-11T13:04:03.045Z,14.26
2023-04-11T13:06:48.406Z,14.61
2023-04-11T13:09:34.335Z,13.15
2023-04-11T13:12:19.231Z,12.63
2023-04-11T13:15:04.522Z,12.26
2023-04-11T13:17:50.188Z,12.15
2023-04-11T13:20:35.213Z,12.54
2023-04-11T13:23:20.553Z,13.92
2023-04-11T13:26:06.351Z,15.11
2023-04-11T13:28:51.768Z,15.10
2023-04-11T13:31:37.347Z,13.94
2023-04-11T13:34:22.419Z,13.49
2023-04-11T13:37:07.850Z,13.41
2023-04-11T13:39:52.976Z,14.30
2023-04-11T13:42:38.279Z,14.37
2023-04-11T13:45:23.749Z,13.52
2023-04-11T13:48:09.040Z,13.89
2023-04-11T13:50:54.323Z,13.89
2023-04-11T13:53:39.898Z,14.14
2023-04-11T13:56:25.433Z,13.70
2023-04-11T13:59:10.782Z,13.47
2023-04-11T14:01:56.135Z,13.52
2023-04-11T14:04:41.586Z,13.73
2023-04-11T14:07:26.911Z,13.27
2023-04-11T14:10:12.279Z,13.53
2023-04-11T14:12:57.561Z,12.66
2023-04-11T14:15:42.880Z,13.09
2023-04-11T14:18:28.227Z,13.64
2023-04-11T14:21:13.449Z,13.40
2023-04-11T14:23:58.797Z,13.31
2023-04-11T14:26:44.082Z,12.97
2023-04-11T14:29:29.566Z,13.24
2023-04-11T14:32:14.870Z,13.48
2023-04-11T14:35:01.899Z,13.96
2023-04-11T14:37:47.118Z,14.25
2023-04-11T14:40:32.506Z,14.52
2023-04-11T14:43:17.876Z,14.08
2023-04-11T14:46:03.441Z,13.54
2023-04-11T14:48:48.759Z,12.92
2023-04-11T14:51:35.053Z,12.49
2023-04-11T14:54:23.000Z,12.55
2023-04-11T14:57:08.283Z,12.52
2023-04-11T14:59:53.928Z,13.32
2023-04-11T15:02:39.349Z,13.42
2023-04-11T15:05:24.606Z,13.75
2023-04-11T15:08:09.889Z,13.99
2023-04-11T15:10:55.219Z,14.35
2023-04-11T15:13:40.583Z,14.61
2023-04-11T15:16:25.958Z,14.55
2023-04-11T15:19:11.306Z,14.25
2023-04-11T15:21:56.837Z,14.49
2023-04-11T15:24:42.110Z,14.08
2023-04-11T15:27:27.489Z,13.39
2023-04-11T15:30:12.815Z,13.84
2023-04-11T15:32:58.166Z,13.89
2023-04-11T15:35:44.578Z,14.51
2023-04-11T15:38:29.620Z,14.78
2023-04-11T15:41:14.997Z,13.93
2023-04-11T15:44:00.111Z,13.76
2023-04-11T15:46:46.935Z,13.98
2023-04-11T15:49:34.016Z,14.29
2023-04-11T15:52:19.330Z,13.39
2023-04-11T15:55:05.305Z,13.95
2023-04-11T15:57:51.566Z,14.01
2023-04-11T16:00:38.045Z,14.18
2023-04-11T16:03:23.510Z,13.42
2023-04-11T16:06:08.739Z,14.10
2023-04-11T16:08:54.299Z,14.56
2023-04-11T16:11:39.744Z,13.73
2023-04-11T16:14:24.849Z,14.32
2023-04-11T16:17:10.078Z,14.56
2023-04-11T16:19:55.492Z,14.47
2023-04-11T16:22:40.956Z,14.23
2023-04-11T16:25:26.505Z,14.21
2023-04-11T16:28:11.700Z,14.01
2023-04-11T16:30:58.386Z,14.11
2023-04-11T16:33:43.404Z,13.85
2023-04-11T16:36:28.840Z,12.99
2023-04-11T16:39:14.204Z,13.23
2023-04-11T16:41:59.081Z,13.71
2023-04-11T16:44:44.597Z,14.20
2023-04-11T16:47:30.125Z,14.37
2023-04-11T16:50:15.470Z,14.00
2023-04-11T16:53:00.735Z,12.66
2023-04-11T16:55:46.292Z,12.90
2023-04-11T16:58:31.806Z,13.44
2023-04-11T17:01:17.193Z,13.45
2023-04-11T17:04:02.524Z,13.36
2023-04-11T17:06:47.616Z,13.45
2023-04-11T17:09:33.018Z,12.79
2023-04-11T17:12:18.283Z,12.77
2023-04-11T17:15:03.756Z,12.90
2023-04-11T17:17:49.034Z,13.06
2023-04-11T17:20:33.927Z,12.86
2023-04-11T17:23:23.920Z,12.89
2023-04-11T17:26:14.376Z,12.74
2023-04-11T17:28:59.654Z,12.65
2023-04-11T17:31:46.312Z,12.76
2023-04-11T17:34:31.547Z,12.85
2023-04-11T17:37:16.791Z,12.79
2023-04-11T17:40:02.285Z,12.55
2023-04-11T17:42:47.801Z,12.55
2023-04-11T17:45:33.204Z,11.76
2023-04-11T17:48:18.585Z,11.84
2023-04-11T17:51:04.778Z,11.89
2023-04-11T17:53:50.116Z,11.75
2023-04-11T17:56:35.458Z,11.00
2023-04-11T17:59:20.656Z,11.21
2023-04-11T18:02:06.845Z,11.07
2023-04-11T18:04:52.415Z,11.04
2023-04-11T18:07:37.870Z,11.02
2023-04-11T18:10:24.105Z,10.85
2023-04-11T18:13:09.344Z,10.63
2023-04-11T18:15:54.874Z,10.56
2023-04-11T18:18:39.909Z,10.51
2023-04-11T18:21:25.252Z,10.46
2023-04-11T18:24:10.637Z,10.42
2023-04-11T18:26:56.068Z,10.35
2023-04-11T18:29:41.606Z,10.36
2023-04-11T18:32:32.350Z,10.42
2023-04-11T18:35:21.073Z,10.52
2023-04-11T18:38:06.128Z,10.64
2023-04-11T18:40:55.307Z,10.53
2023-04-11T18:43:41.614Z,10.43
2023-04-11T18:46:27.306Z,10.04
2023-04-11T18:49:14.061Z,10.19
2023-04-11T18:52:02.072Z,10.38
2023-04-11T18:54:47.509Z,10.00
2023-04-11T18:57:34.427Z,9.84
2023-04-11T19:00:20.555Z,9.69
2023-04-11T19:03:06.155Z,9.59
2023-04-11T19:05:51.864Z,9.56
2023-04-11T19:08:37.049Z,9.50
2023-04-11T19:11:22.235Z,9.33
2023-04-11T19:14:08.829Z,9.19
2023-04-11T19:16:54.189Z,9.09
2023-04-11T19:19:39.920Z,9.07
2023-04-11T19:22:25.223Z,9.04
2023-04-11T19:25:11.671Z,9.18
2023-04-11T19:27:56.930Z,9.24
2023-04-11T19:30:42.297Z,9.19
2023-04-11T19:33:27.679Z,8.97
2023-04-11T19:36:13.094Z,8.81
2023-04-11T19:38:58.505Z,8.69
2023-04-11T19:41:44.864Z,8.55
2023-04-11T19:44:30.238Z,8.28
2023-04-11T19:47:15.746Z,8.15
2023-04-11T19:50:01.397Z,8.01
2023-04-11T19:52:46.484Z,7.82
2023-04-11T19:55:31.734Z,7.71
2023-04-11T19:58:17.662Z,7.71
2023-04-11T20:01:03.978Z,7.73
2023-04-11T20:03:49.153Z,7.83
2023-04-11T20:06:34.570Z,7.86
2023-04-11T20:09:19.935Z,7.92
2023-04-11T20:12:05.428Z,8.03
2023-04-11T20:14:50.873Z,8.05
2023-04-11T20:17:36.320Z,7.95
2023-04-11T20:20:21.953Z,7.74
2023-04-11T20:23:07.235Z,7.60
2023-04-11T20:25:52.548Z,7.62
2023-04-11T20:28:37.934Z,7.59
2023-04-11T20:31:24.043Z,7.64
2023-04-11T20:34:09.244Z,7.69
2023-04-11T20:36:55.017Z,7.71
2023-04-11T20:39:40.325Z,7.67
2023-04-11T20:42:26.486Z,7.59
2023-04-11T20:45:16.681Z,7.58
2023-04-11T20:48:02.030Z,7.55
2023-04-11T20:50:47.417Z,7.57
2023-04-11T20:53:32.800Z,7.73
2023-04-11T20:56:18.197Z,7.70
2023-04-11T20:59:03.910Z,7.68
2023-04-11T21:01:49.203Z,7.63
2023-04-11T21:04:34.522Z,7.50
2023-04-11T21:07:20.651Z,7.26
2023-04-11T21:10:06.533Z,7.29
2023-04-11T21:12:51.961Z,7.31
2023-04-11T21:15:36.883Z,7.36
2023-04-11T21:18:22.324Z,7.40
2023-04-11T21:21:11.221Z,7.44
2023-04-11T21:23:56.980Z,7.49
2023-04-11T21:26:42.471Z,7.36
2023-04-11T21:29:28.815Z,7.34
2023-04-11T21:32:14.291Z,7.29
2023-04-11T21:34:59.252Z,7.43
2023-04-11T21:37:45.989Z,7.28
2023-04-11T21:40:32.942Z,7.36
2023-04-11T21:43:18.393Z,7.39
2023-04-11T21:46:03.747Z,7.35
2023-04-11T21:48:50.866Z,7.19
2023-04-11T21:51:36.690Z,7.25
2023-04-11T21:54:22.263Z,7.14
2023-04-11T21:57:07.407Z,7.05
2023-04-11T21:59:52.834Z,7.10
2023-04-11T22:02:38.623Z,7.08
2023-04-11T22:05:24.172Z,7.02
2023-04-11T22:08:14.834Z,7.11
2023-04-11T22:11:00.450Z,7.08
2023-04-11T22:13:46.286Z,7.14
2023-04-11T22:16:31.906Z,7.17
2023-04-11T22:19:18.214Z,7.17
2023-04-11T22:22:04.546Z,7.14
2023-04-11T22:24:49.765Z,7.15
2023-04-11T22:27:35.114Z,7.17
2023-04-11T22:30:20.502Z,7.17
2023-04-11T22:33:05.978Z,7.04
2023-04-11T22:35:51.425Z,7.07
2023-04-11T22:38:36.909Z,6.92
2023-04-11T22:41:22.246Z,6.99
2023-04-11T22:44:07.838Z,7.01
2023-04-11T22:47:03.566Z,6.99
2023-04-11T22:49:48.726Z,6.97
2023-04-11T22:52:33.973Z,6.89
2023-04-11T22:55:19.367Z,6.94
2023-04-11T22:58:04.825Z,6.95
2023-04-11T23:00:50.170Z,6.99
2023-04-11T23:03:35.654Z,6.94
2023-04-11T23:06:20.915Z,6.91
2023-04-11T23:09:06.368Z,7.00
2023-04-11T23:11:52.378Z,6.87
2023-04-11T23:14:37.599Z,6.89
2023-04-11T23:17:22.531Z,6.93
2023-04-11T23:20:08.476Z,6.94
2023-04-11T23:22:53.388Z,6.91
2023-04-11T23:25:39.098Z,6.93
2023-04-11T23:28:23.897Z,6.92
2023-04-11T23:31:08.722Z,6.94
2023-04-11T23:33:53.947Z,7.03
2023-04-11T23:36:38.921Z,7.01
2023-04-11T23:39:23.768Z,7.03
2023-04-11T23:42:09.400Z,6.99
2023-04-11T23:44:54.630Z,7.08
2023-04-11T23:47:40.389Z,7.01
2023-04-11T23:50:25.417Z,7.03
2023-04-11T23:53:10.865Z,7.03
2023-04-11T23:55:56.395Z,6.99
2023-04-11T23:58:41.733Z,7.02
